sensor_id;sensor_type;location;lat;lon;timestamp;temperature;humidity
41722;DHT22;27407;24.142;-110.310;2023-06-26T00:00:29;39.40;94.90
41722;DHT22;27407;24.142;-110.310;2023-06-26T00:02:55;39.50;95.80
41722;DHT22;27407;24.142;-110.310;2023-06-26T00:05:22;40.40;95.20
41722;DHT22;27407;24.142;-110.310;2023-06-26T00:07:48;40.20;95.10
41722;DHT22;27407;24.142;-110.310;2023-06-26T00:10:15;40.70;94.00
41722;DHT22;27407;24.142;-110.310;2023-06-26T00:12:42;41.40;93.40
41722;DHT22;27407;24.142;-110.310;2023-06-26T00:15:09;42.40;92.30
41722;DHT22;27407;24.142;-110.310;2023-06-26T00:17:36;41.50;91.80
41722;DHT22;27407;24.142;-110.310;2023-06-26T00:20:03;41.20;92.40
41722;DHT22;27407;24.142;-110.310;2023-06-26T00:22:31;41.30;92.10
41722;DHT22;27407;24.142;-110.310;2023-06-26T00:24:58;41.20;90.80
41722;DHT22;27407;24.142;-110.310;2023-06-26T00:27:24;41.10;91.30
41722;DHT22;27407;24.142;-110.310;2023-06-26T00:29:51;41.00;92.00
41722;DHT22;27407;24.142;-110.310;2023-06-26T00:32:19;41.00;91.40
41722;DHT22;27407;24.142;-110.310;2023-06-26T00:34:45;41.20;91.30
41722;DHT22;27407;24.142;-110.310;2023-06-26T00:37:13;40.70;92.00
41722;DHT22;27407;24.142;-110.310;2023-06-26T00:39:39;40.70;91.80
41722;DHT22;27407;24.142;-110.310;2023-06-26T00:42:07;40.40;90.80
41722;DHT22;27407;24.142;-110.310;2023-06-26T00:44:33;40.20;91.60
41722;DHT22;27407;24.142;-110.310;2023-06-26T00:47:00;40.80;90.50
41722;DHT22;27407;24.142;-110.310;2023-06-26T00:49:27;40.80;90.80
41722;DHT22;27407;24.142;-110.310;2023-06-26T00:51:54;40.90;91.10
41722;DHT22;27407;24.142;-110.310;2023-06-26T00:54:21;41.00;90.80
41722;DHT22;27407;24.142;-110.310;2023-06-26T00:56:48;41.00;90.60
41722;DHT22;27407;24.142;-110.310;2023-06-26T00:59:15;40.20;91.10
41722;DHT22;27407;24.142;-110.310;2023-06-26T01:01:42;39.60;92.10
41722;DHT22;27407;24.142;-110.310;2023-06-26T01:04:08;39.10;92.60
41722;DHT22;27407;24.142;-110.310;2023-06-26T01:06:47;39.00;92.70
41722;DHT22;27407;24.142;-110.310;2023-06-26T01:09:19;38.60;92.60
41722;DHT22;27407;24.142;-110.310;2023-06-26T01:11:47;38.80;93.40
41722;DHT22;27407;24.142;-110.310;2023-06-26T01:14:14;39.00;92.70
41722;DHT22;27407;24.142;-110.310;2023-06-26T01:16:41;39.10;90.60
41722;DHT22;27407;24.142;-110.310;2023-06-26T01:19:32;38.70;91.50
41722;DHT22;27407;24.142;-110.310;2023-06-26T01:25:15;38.50;90.60
41722;DHT22;27407;24.142;-110.310;2023-06-26T01:27:50;38.20;94.30
41722;DHT22;27407;24.142;-110.310;2023-06-26T01:30:17;37.80;93.60
41722;DHT22;27407;24.142;-110.310;2023-06-26T01:32:45;37.40;95.30
41722;DHT22;27407;24.142;-110.310;2023-06-26T01:35:12;37.20;95.80
41722;DHT22;27407;24.142;-110.310;2023-06-26T01:37:39;36.90;99.70
41722;DHT22;27407;24.142;-110.310;2023-06-26T01:40:07;36.20;99.50
41722;DHT22;27407;24.142;-110.310;2023-06-26T01:42:34;36.00;96.30
41722;DHT22;27407;24.142;-110.310;2023-06-26T01:45:24;36.10;95.30
41722;DHT22;27407;24.142;-110.310;2023-06-26T01:47:54;36.00;94.90
41722;DHT22;27407;24.142;-110.310;2023-06-26T01:50:24;36.00;94.90
41722;DHT22;27407;24.142;-110.310;2023-06-26T01:53:16;35.80;95.10
41722;DHT22;27407;24.142;-110.310;2023-06-26T01:55:54;35.60;95.30
41722;DHT22;27407;24.142;-110.310;2023-06-26T01:58:24;35.40;95.60
41722;DHT22;27407;24.142;-110.310;2023-06-26T02:00:51;35.40;95.90
41722;DHT22;27407;24.142;-110.310;2023-06-26T02:03:18;35.00;96.10
41722;DHT22;27407;24.142;-110.310;2023-06-26T02:05:46;34.90;96.40
41722;DHT22;27407;24.142;-110.310;2023-06-26T02:08:14;34.70;96.50
41722;DHT22;27407;24.142;-110.310;2023-06-26T02:10:41;34.50;96.60
41722;DHT22;27407;24.142;-110.310;2023-06-26T02:13:08;34.40;97.00
41722;DHT22;27407;24.142;-110.310;2023-06-26T02:15:35;34.20;97.20
41722;DHT22;27407;24.142;-110.310;2023-06-26T02:18:01;34.10;97.40
41722;DHT22;27407;24.142;-110.310;2023-06-26T02:20:28;33.90;97.80
41722;DHT22;27407;24.142;-110.310;2023-06-26T02:22:54;33.70;97.90
41722;DHT22;27407;24.142;-110.310;2023-06-26T02:25:21;33.60;98.00
41722;DHT22;27407;24.142;-110.310;2023-06-26T02:27:48;33.60;98.10
41722;DHT22;27407;24.142;-110.310;2023-06-26T02:30:14;33.60;98.30
41722;DHT22;27407;24.142;-110.310;2023-06-26T02:32:41;33.20;98.80
41722;DHT22;27407;24.142;-110.310;2023-06-26T02:35:08;32.90;99.10
41722;DHT22;27407;24.142;-110.310;2023-06-26T02:37:35;32.60;99.50
41722;DHT22;27407;24.142;-110.310;2023-06-26T02:40:01;32.60;99.80
41722;DHT22;27407;24.142;-110.310;2023-06-26T02:42:31;32.30;99.90
41722;DHT22;27407;24.142;-110.310;2023-06-26T02:44:57;32.20;99.90
41722;DHT22;27407;24.142;-110.310;2023-06-26T02:47:24;32.00;99.90
41722;DHT22;27407;24.142;-110.310;2023-06-26T02:49:51;32.00;99.90
41722;DHT22;27407;24.142;-110.310;2023-06-26T02:52:17;31.80;99.90
41722;DHT22;27407;24.142;-110.310;2023-06-26T02:54:45;31.60;99.90
41722;DHT22;27407;24.142;-110.310;2023-06-26T02:57:11;31.60;99.90
41722;DHT22;27407;24.142;-110.310;2023-06-26T02:59:38;31.70;99.90
41722;DHT22;27407;24.142;-110.310;2023-06-26T03:02:05;31.40;99.90
41722;DHT22;27407;24.142;-110.310;2023-06-26T03:04:32;31.00;99.90
41722;DHT22;27407;24.142;-110.310;2023-06-26T03:07:03;31.00;99.90
41722;DHT22;27407;24.142;-110.310;2023-06-26T03:09:30;30.90;99.90
41722;DHT22;27407;24.142;-110.310;2023-06-26T03:11:57;30.70;99.90
41722;DHT22;27407;24.142;-110.310;2023-06-26T03:14:23;30.90;99.90
41722;DHT22;27407;24.142;-110.310;2023-06-26T03:16:50;30.70;99.90
41722;DHT22;27407;24.142;-110.310;2023-06-26T03:19:19;30.70;99.90
41722;DHT22;27407;24.142;-110.310;2023-06-26T03:21:45;30.60;99.90
41722;DHT22;27407;24.142;-110.310;2023-06-26T03:24:12;30.50;99.90
41722;DHT22;27407;24.142;-110.310;2023-06-26T03:26:39;30.60;99.90
41722;DHT22;27407;24.142;-110.310;2023-06-26T03:29:05;30.50;99.90
41722;DHT22;27407;24.142;-110.310;2023-06-26T03:31:32;30.50;99.90
41722;DHT22;27407;24.142;-110.310;2023-06-26T03:33:59;30.40;99.90
41722;DHT22;27407;24.142;-110.310;2023-06-26T03:36:25;30.40;99.90
41722;DHT22;27407;24.142;-110.310;2023-06-26T03:38:52;30.30;99.90
41722;DHT22;27407;24.142;-110.310;2023-06-26T03:41:23;30.40;99.90
41722;DHT22;27407;24.142;-110.310;2023-06-26T03:43:50;30.40;99.90
41722;DHT22;27407;24.142;-110.310;2023-06-26T03:46:17;30.30;99.90
41722;DHT22;27407;24.142;-110.310;2023-06-26T03:48:44;30.20;99.90
41722;DHT22;27407;24.142;-110.310;2023-06-26T03:51:10;30.20;99.90
41722;DHT22;27407;24.142;-110.310;2023-06-26T03:53:37;30.20;99.90
41722;DHT22;27407;24.142;-110.310;2023-06-26T03:56:04;30.20;99.90
41722;DHT22;27407;24.142;-110.310;2023-06-26T03:58:30;30.00;99.90
41722;DHT22;27407;24.142;-110.310;2023-06-26T04:00:57;29.90;99.90
41722;DHT22;27407;24.142;-110.310;2023-06-26T04:03:24;30.00;99.90
41722;DHT22;27407;24.142;-110.310;2023-06-26T04:05:51;30.00;99.90
41722;DHT22;27407;24.142;-110.310;2023-06-26T04:08:17;30.00;99.90
41722;DHT22;27407;24.142;-110.310;2023-06-26T04:10:45;29.90;99.90
41722;DHT22;27407;24.142;-110.310;2023-06-26T04:13:14;30.00;99.90
41722;DHT22;27407;24.142;-110.310;2023-06-26T04:15:41;30.10;99.90
41722;DHT22;27407;24.142;-110.310;2023-06-26T04:18:07;29.90;99.90
41722;DHT22;27407;24.142;-110.310;2023-06-26T04:20:39;29.90;99.90
41722;DHT22;27407;24.142;-110.310;2023-06-26T04:23:06;29.90;99.90
41722;DHT22;27407;24.142;-110.310;2023-06-26T04:25:32;29.80;99.90
41722;DHT22;27407;24.142;-110.310;2023-06-26T04:27:59;29.70;99.90
41722;DHT22;27407;24.142;-110.310;2023-06-26T04:30:25;29.70;99.90
41722;DHT22;27407;24.142;-110.310;2023-06-26T04:32:52;29.70;99.90
41722;DHT22;27407;24.142;-110.310;2023-06-26T04:35:19;29.80;99.90
41722;DHT22;27407;24.142;-110.310;2023-06-26T04:37:47;29.70;99.90
41722;DHT22;27407;24.142;-110.310;2023-06-26T04:40:13;29.60;99.90
41722;DHT22;27407;24.142;-110.310;2023-06-26T04:42:40;29.50;99.90
41722;DHT22;27407;24.142;-110.310;2023-06-26T04:45:07;29.50;99.90
41722;DHT22;27407;24.142;-110.310;2023-06-26T04:47:34;29.40;99.90
41722;DHT22;27407;24.142;-110.310;2023-06-26T04:50:00;29.50;99.90
41722;DHT22;27407;24.142;-110.310;2023-06-26T04:52:33;29.50;99.90
41722;DHT22;27407;24.142;-110.310;2023-06-26T04:55:03;29.50;99.90
41722;DHT22;27407;24.142;-110.310;2023-06-26T04:57:33;29.40;99.90
41722;DHT22;27407;24.142;-110.310;2023-06-26T04:59:59;29.30;99.90
41722;DHT22;27407;24.142;-110.310;2023-06-26T05:02:26;29.40;99.90
41722;DHT22;27407;24.142;-110.310;2023-06-26T05:04:53;29.30;99.90
41722;DHT22;27407;24.142;-110.310;2023-06-26T05:07:22;29.30;99.90
41722;DHT22;27407;24.142;-110.310;2023-06-26T05:09:48;29.20;99.90
41722;DHT22;27407;24.142;-110.310;2023-06-26T05:12:18;29.10;99.90
41722;DHT22;27407;24.142;-110.310;2023-06-26T05:14:45;29.10;99.90
41722;DHT22;27407;24.142;-110.310;2023-06-26T05:17:14;29.00;99.90
41722;DHT22;27407;24.142;-110.310;2023-06-26T05:19:41;29.00;99.90
41722;DHT22;27407;24.142;-110.310;2023-06-26T05:22:08;29.00;99.90
41722;DHT22;27407;24.142;-110.310;2023-06-26T05:24:39;28.90;99.90
41722;DHT22;27407;24.142;-110.310;2023-06-26T05:27:06;28.90;99.90
41722;DHT22;27407;24.142;-110.310;2023-06-26T05:29:34;28.80;99.90
41722;DHT22;27407;24.142;-110.310;2023-06-26T05:32:01;28.90;99.90
41722;DHT22;27407;24.142;-110.310;2023-06-26T05:34:28;28.70;99.90
41722;DHT22;27407;24.142;-110.310;2023-06-26T05:36:59;28.80;99.90
41722;DHT22;27407;24.142;-110.310;2023-06-26T05:39:29;28.70;99.90
41722;DHT22;27407;24.142;-110.310;2023-06-26T05:41:56;28.70;99.90
41722;DHT22;27407;24.142;-110.310;2023-06-26T05:44:23;28.70;99.90
41722;DHT22;27407;24.142;-110.310;2023-06-26T05:46:53;28.60;99.90
41722;DHT22;27407;24.142;-110.310;2023-06-26T05:49:19;28.70;99.90
41722;DHT22;27407;24.142;-110.310;2023-06-26T05:51:46;28.60;99.90
41722;DHT22;27407;24.142;-110.310;2023-06-26T05:54:13;28.50;99.90
41722;DHT22;27407;24.142;-110.310;2023-06-26T05:56:43;28.60;99.90
41722;DHT22;27407;24.142;-110.310;2023-06-26T05:59:11;28.50;99.90
41722;DHT22;27407;24.142;-110.310;2023-06-26T06:01:38;28.30;99.90
41722;DHT22;27407;24.142;-110.310;2023-06-26T06:04:05;28.40;99.90
41722;DHT22;27407;24.142;-110.310;2023-06-26T06:06:31;28.30;99.90
41722;DHT22;27407;24.142;-110.310;2023-06-26T06:08:58;28.20;99.90
41722;DHT22;27407;24.142;-110.310;2023-06-26T06:11:25;28.30;99.90
41722;DHT22;27407;24.142;-110.310;2023-06-26T06:13:51;28.20;99.90
41722;DHT22;27407;24.142;-110.310;2023-06-26T06:16:21;28.10;99.90
41722;DHT22;27407;24.142;-110.310;2023-06-26T06:18:50;28.10;99.90
41722;DHT22;27407;24.142;-110.310;2023-06-26T06:21:17;28.10;99.90
41722;DHT22;27407;24.142;-110.310;2023-06-26T06:23:43;28.00;99.90
41722;DHT22;27407;24.142;-110.310;2023-06-26T06:26:10;27.90;99.90
41722;DHT22;27407;24.142;-110.310;2023-06-26T06:28:37;28.10;99.90
41722;DHT22;27407;24.142;-110.310;2023-06-26T06:31:04;28.00;99.90
41722;DHT22;27407;24.142;-110.310;2023-06-26T06:33:31;28.00;99.90
41722;DHT22;27407;24.142;-110.310;2023-06-26T06:35:57;27.90;99.90
41722;DHT22;27407;24.142;-110.310;2023-06-26T06:38:24;28.00;99.90
41722;DHT22;27407;24.142;-110.310;2023-06-26T06:40:53;28.00;99.90
41722;DHT22;27407;24.142;-110.310;2023-06-26T06:43:23;28.10;99.90
41722;DHT22;27407;24.142;-110.310;2023-06-26T06:45:50;28.10;99.90
41722;DHT22;27407;24.142;-110.310;2023-06-26T06:48:16;28.10;99.90
41722;DHT22;27407;24.142;-110.310;2023-06-26T06:50:43;28.10;99.90
41722;DHT22;27407;24.142;-110.310;2023-06-26T06:53:09;27.90;99.90
41722;DHT22;27407;24.142;-110.310;2023-06-26T06:55:36;28.20;99.90
41722;DHT22;27407;24.142;-110.310;2023-06-26T06:58:03;28.10;99.90
41722;DHT22;27407;24.142;-110.310;2023-06-26T07:00:29;28.10;99.90
41722;DHT22;27407;24.142;-110.310;2023-06-26T07:02:59;27.90;99.90
41722;DHT22;27407;24.142;-110.310;2023-06-26T07:05:26;27.90;99.90
41722;DHT22;27407;24.142;-110.310;2023-06-26T07:07:53;27.80;99.90
41722;DHT22;27407;24.142;-110.310;2023-06-26T07:10:19;27.70;99.90
41722;DHT22;27407;24.142;-110.310;2023-06-26T07:12:46;27.70;99.90
41722;DHT22;27407;24.142;-110.310;2023-06-26T07:15:13;27.60;99.90
41722;DHT22;27407;24.142;-110.310;2023-06-26T07:17:39;27.70;99.90
41722;DHT22;27407;24.142;-110.310;2023-06-26T07:20:15;27.70;99.90
41722;DHT22;27407;24.142;-110.310;2023-06-26T07:22:42;27.80;99.90
41722;DHT22;27407;24.142;-110.310;2023-06-26T07:25:11;27.70;99.90
41722;DHT22;27407;24.142;-110.310;2023-06-26T07:27:38;27.70;99.90
41722;DHT22;27407;24.142;-110.310;2023-06-26T07:30:05;27.60;99.90
41722;DHT22;27407;24.142;-110.310;2023-06-26T07:32:41;27.60;99.90
41722;DHT22;27407;24.142;-110.310;2023-06-26T07:35:08;27.70;99.90
41722;DHT22;27407;24.142;-110.310;2023-06-26T07:37:37;27.60;99.90
41722;DHT22;27407;24.142;-110.310;2023-06-26T07:40:08;27.60;99.90
41722;DHT22;27407;24.142;-110.310;2023-06-26T07:42:35;27.50;99.90
41722;DHT22;27407;24.142;-110.310;2023-06-26T07:45:01;27.50;99.90
41722;DHT22;27407;24.142;-110.310;2023-06-26T07:47:31;27.50;99.90
41722;DHT22;27407;24.142;-110.310;2023-06-26T07:49:57;27.50;99.90
41722;DHT22;27407;24.142;-110.310;2023-06-26T07:52:24;27.50;99.90
41722;DHT22;27407;24.142;-110.310;2023-06-26T07:54:51;27.40;99.90
41722;DHT22;27407;24.142;-110.310;2023-06-26T07:57:26;27.50;99.90
41722;DHT22;27407;24.142;-110.310;2023-06-26T07:59:55;27.50;99.90
41722;DHT22;27407;24.142;-110.310;2023-06-26T08:02:25;27.50;99.90
41722;DHT22;27407;24.142;-110.310;2023-06-26T08:04:57;27.50;99.90
41722;DHT22;27407;24.142;-110.310;2023-06-26T08:07:29;27.50;99.90
41722;DHT22;27407;24.142;-110.310;2023-06-26T08:09:58;27.40;99.90
41722;DHT22;27407;24.142;-110.310;2023-06-26T08:12:25;27.30;99.90
41722;DHT22;27407;24.142;-110.310;2023-06-26T08:14:52;27.30;99.90
41722;DHT22;27407;24.142;-110.310;2023-06-26T08:17:18;27.40;99.90
41722;DHT22;27407;24.142;-110.310;2023-06-26T08:19:47;27.30;99.90
41722;DHT22;27407;24.142;-110.310;2023-06-26T08:22:14;27.20;99.90
41722;DHT22;27407;24.142;-110.310;2023-06-26T08:24:40;27.10;99.90
41722;DHT22;27407;24.142;-110.310;2023-06-26T08:27:07;27.00;99.90
41722;DHT22;27407;24.142;-110.310;2023-06-26T08:29:34;27.00;99.90
41722;DHT22;27407;24.142;-110.310;2023-06-26T08:32:01;26.90;99.90
41722;DHT22;27407;24.142;-110.310;2023-06-26T08:34:28;26.80;99.90
41722;DHT22;27407;24.142;-110.310;2023-06-26T08:36:54;26.90;99.90
41722;DHT22;27407;24.142;-110.310;2023-06-26T08:39:21;26.90;99.90
41722;DHT22;27407;24.142;-110.310;2023-06-26T08:41:48;27.10;99.90
41722;DHT22;27407;24.142;-110.310;2023-06-26T08:44:14;27.00;99.90
41722;DHT22;27407;24.142;-110.310;2023-06-26T08:46:41;27.10;99.90
41722;DHT22;27407;24.142;-110.310;2023-06-26T08:49:20;27.20;99.90
41722;DHT22;27407;24.142;-110.310;2023-06-26T08:51:54;27.10;99.90
41722;DHT22;27407;24.142;-110.310;2023-06-26T08:54:31;26.90;99.90
41722;DHT22;27407;24.142;-110.310;2023-06-26T08:57:01;26.70;99.90
41722;DHT22;27407;24.142;-110.310;2023-06-26T08:59:28;26.60;99.90
41722;DHT22;27407;24.142;-110.310;2023-06-26T09:01:55;26.60;99.90
41722;DHT22;27407;24.142;-110.310;2023-06-26T09:04:21;26.50;99.90
41722;DHT22;27407;24.142;-110.310;2023-06-26T09:06:48;26.50;99.90
41722;DHT22;27407;24.142;-110.310;2023-06-26T09:09:15;26.50;99.90
41722;DHT22;27407;24.142;-110.310;2023-06-26T09:11:41;26.40;99.90
41722;DHT22;27407;24.142;-110.310;2023-06-26T09:14:08;26.30;99.90
41722;DHT22;27407;24.142;-110.310;2023-06-26T09:16:42;26.20;99.90
41722;DHT22;27407;24.142;-110.310;2023-06-26T09:19:10;26.20;99.90
41722;DHT22;27407;24.142;-110.310;2023-06-26T09:21:42;26.10;99.90
41722;DHT22;27407;24.142;-110.310;2023-06-26T09:24:10;26.10;99.90
41722;DHT22;27407;24.142;-110.310;2023-06-26T09:26:38;26.10;99.90
41722;DHT22;27407;24.142;-110.310;2023-06-26T09:29:05;26.00;99.90
41722;DHT22;27407;24.142;-110.310;2023-06-26T09:31:37;26.10;99.90
41722;DHT22;27407;24.142;-110.310;2023-06-26T09:34:04;26.20;99.90
41722;DHT22;27407;24.142;-110.310;2023-06-26T09:36:32;26.20;99.90
41722;DHT22;27407;24.142;-110.310;2023-06-26T09:39:06;26.30;99.90
41722;DHT22;27407;24.142;-110.310;2023-06-26T09:41:37;26.50;99.90
41722;DHT22;27407;24.142;-110.310;2023-06-26T09:44:05;26.50;99.90
41722;DHT22;27407;24.142;-110.310;2023-06-26T09:46:32;26.50;99.90
41722;DHT22;27407;24.142;-110.310;2023-06-26T09:49:06;26.40;99.90
41722;DHT22;27407;24.142;-110.310;2023-06-26T09:51:34;26.20;99.90
41722;DHT22;27407;24.142;-110.310;2023-06-26T09:54:09;26.20;99.90
41722;DHT22;27407;24.142;-110.310;2023-06-26T09:56:42;26.20;99.90
41722;DHT22;27407;24.142;-110.310;2023-06-26T09:59:09;26.20;99.90
41722;DHT22;27407;24.142;-110.310;2023-06-26T10:01:41;26.30;99.90
41722;DHT22;27407;24.142;-110.310;2023-06-26T10:04:08;26.40;99.90
41722;DHT22;27407;24.142;-110.310;2023-06-26T10:06:47;26.40;99.90
41722;DHT22;27407;24.142;-110.310;2023-06-26T10:09:18;26.50;99.90
41722;DHT22;27407;24.142;-110.310;2023-06-26T10:14:27;26.60;99.90
41722;DHT22;27407;24.142;-110.310;2023-06-26T10:16:58;26.50;99.90
41722;DHT22;27407;24.142;-110.310;2023-06-26T10:19:27;26.50;99.90
41722;DHT22;27407;24.142;-110.310;2023-06-26T10:21:55;26.30;99.90
41722;DHT22;27407;24.142;-110.310;2023-06-26T10:24:23;26.30;99.90
41722;DHT22;27407;24.142;-110.310;2023-06-26T10:27:00;26.30;99.90
41722;DHT22;27407;24.142;-110.310;2023-06-26T10:29:29;26.20;99.90
41722;DHT22;27407;24.142;-110.310;2023-06-26T10:31:58;26.20;99.90
41722;DHT22;27407;24.142;-110.310;2023-06-26T10:34:29;26.30;99.90
41722;DHT22;27407;24.142;-110.310;2023-06-26T10:37:01;26.40;99.90
41722;DHT22;27407;24.142;-110.310;2023-06-26T10:39:32;26.40;99.90
41722;DHT22;27407;24.142;-110.310;2023-06-26T10:42:11;26.50;99.90
41722;DHT22;27407;24.142;-110.310;2023-06-26T10:44:45;26.60;99.90
41722;DHT22;27407;24.142;-110.310;2023-06-26T10:47:32;26.50;99.90
41722;DHT22;27407;24.142;-110.310;2023-06-26T10:50:33;26.50;99.90
41722;DHT22;27407;24.142;-110.310;2023-06-26T10:53:14;26.60;99.90
41722;DHT22;27407;24.142;-110.310;2023-06-26T10:55:43;26.50;99.90
41722;DHT22;27407;24.142;-110.310;2023-06-26T11:03:40;26.50;99.90
41722;DHT22;27407;24.142;-110.310;2023-06-26T11:06:14;26.50;99.90
41722;DHT22;27407;24.142;-110.310;2023-06-26T11:11:15;26.40;99.90
41722;DHT22;27407;24.142;-110.310;2023-06-26T11:13:44;26.30;99.90
41722;DHT22;27407;24.142;-110.310;2023-06-26T11:16:12;26.30;99.90
41722;DHT22;27407;24.142;-110.310;2023-06-26T11:18:41;26.20;99.90
41722;DHT22;27407;24.142;-110.310;2023-06-26T11:21:08;26.20;99.90
41722;DHT22;27407;24.142;-110.310;2023-06-26T11:23:37;26.20;99.90
41722;DHT22;27407;24.142;-110.310;2023-06-26T11:26:16;26.20;99.90
41722;DHT22;27407;24.142;-110.310;2023-06-26T11:28:51;26.10;99.90
41722;DHT22;27407;24.142;-110.310;2023-06-26T11:31:25;25.90;99.90
41722;DHT22;27407;24.142;-110.310;2023-06-26T11:33:53;25.90;99.90
41722;DHT22;27407;24.142;-110.310;2023-06-26T11:36:27;25.90;99.90
41722;DHT22;27407;24.142;-110.310;2023-06-26T11:39:01;25.80;99.90
41722;DHT22;27407;24.142;-110.310;2023-06-26T11:41:30;25.70;99.90
41722;DHT22;27407;24.142;-110.310;2023-06-26T11:44:08;25.70;99.90
41722;DHT22;27407;24.142;-110.310;2023-06-26T11:46:37;25.70;99.90
41722;DHT22;27407;24.142;-110.310;2023-06-26T11:49:04;25.70;99.90
41722;DHT22;27407;24.142;-110.310;2023-06-26T11:51:32;25.70;99.90
41722;DHT22;27407;24.142;-110.310;2023-06-26T11:54:01;25.70;99.90
41722;DHT22;27407;24.142;-110.310;2023-06-26T11:56:31;25.60;99.90
41722;DHT22;27407;24.142;-110.310;2023-06-26T11:59:05;25.70;99.90
41722;DHT22;27407;24.142;-110.310;2023-06-26T12:01:36;25.70;99.90
41722;DHT22;27407;24.142;-110.310;2023-06-26T12:04:04;25.70;99.90
41722;DHT22;27407;24.142;-110.310;2023-06-26T12:06:33;25.70;99.90
41722;DHT22;27407;24.142;-110.310;2023-06-26T12:09:02;25.70;99.90
41722;DHT22;27407;24.142;-110.310;2023-06-26T12:11:32;25.70;99.90
41722;DHT22;27407;24.142;-110.310;2023-06-26T12:14:00;25.70;99.90
41722;DHT22;27407;24.142;-110.310;2023-06-26T12:16:31;25.80;99.90
41722;DHT22;27407;24.142;-110.310;2023-06-26T12:19:08;25.70;99.90
41722;DHT22;27407;24.142;-110.310;2023-06-26T12:24:09;25.60;99.90
41722;DHT22;27407;24.142;-110.310;2023-06-26T12:26:36;25.60;99.90
41722;DHT22;27407;24.142;-110.310;2023-06-26T12:29:08;25.60;99.90
41722;DHT22;27407;24.142;-110.310;2023-06-26T12:31:35;25.60;99.90
41722;DHT22;27407;24.142;-110.310;2023-06-26T12:34:08;25.60;99.90
41722;DHT22;27407;24.142;-110.310;2023-06-26T12:36:45;25.60;99.90
41722;DHT22;27407;24.142;-110.310;2023-06-26T12:39:12;25.60;99.90
41722;DHT22;27407;24.142;-110.310;2023-06-26T12:41:51;25.50;99.90
41722;DHT22;27407;24.142;-110.310;2023-06-26T12:44:22;25.50;99.90
41722;DHT22;27407;24.142;-110.310;2023-06-26T12:46:50;25.60;99.90
41722;DHT22;27407;24.142;-110.310;2023-06-26T12:49:19;25.60;99.90
41722;DHT22;27407;24.142;-110.310;2023-06-26T12:51:46;25.60;99.90
41722;DHT22;27407;24.142;-110.310;2023-06-26T12:54:12;25.60;99.90
41722;DHT22;27407;24.142;-110.310;2023-06-26T12:56:39;25.60;99.90
41722;DHT22;27407;24.142;-110.310;2023-06-26T12:59:06;25.60;99.90
41722;DHT22;27407;24.142;-110.310;2023-06-26T13:01:32;25.60;99.90
41722;DHT22;27407;24.142;-110.310;2023-06-26T13:04:00;25.50;99.90
41722;DHT22;27407;24.142;-110.310;2023-06-26T13:06:26;25.60;99.90
41722;DHT22;27407;24.142;-110.310;2023-06-26T13:08:53;25.50;99.90
41722;DHT22;27407;24.142;-110.310;2023-06-26T13:11:20;25.60;99.90
41722;DHT22;27407;24.142;-110.310;2023-06-26T13:13:47;25.60;99.90
41722;DHT22;27407;24.142;-110.310;2023-06-26T13:16:14;25.60;99.90
41722;DHT22;27407;24.142;-110.310;2023-06-26T13:18:40;25.60;99.90
41722;DHT22;27407;24.142;-110.310;2023-06-26T13:21:07;25.70;99.90
41722;DHT22;27407;24.142;-110.310;2023-06-26T13:23:33;25.80;99.90
41722;DHT22;27407;24.142;-110.310;2023-06-26T13:26:00;25.90;99.90
41722;DHT22;27407;24.142;-110.310;2023-06-26T13:28:27;26.00;99.90
41722;DHT22;27407;24.142;-110.310;2023-06-26T13:30:53;26.10;99.90
41722;DHT22;27407;24.142;-110.310;2023-06-26T13:33:21;26.10;99.90
41722;DHT22;27407;24.142;-110.310;2023-06-26T13:35:50;26.10;99.90
41722;DHT22;27407;24.142;-110.310;2023-06-26T13:38:18;26.20;99.90
41722;DHT22;27407;24.142;-110.310;2023-06-26T13:40:45;26.20;99.90
41722;DHT22;27407;24.142;-110.310;2023-06-26T13:43:12;26.30;99.90
41722;DHT22;27407;24.142;-110.310;2023-06-26T13:45:39;26.40;99.90
41722;DHT22;27407;24.142;-110.310;2023-06-26T13:48:08;26.40;99.90
41722;DHT22;27407;24.142;-110.310;2023-06-26T13:50:35;26.50;99.90
41722;DHT22;27407;24.142;-110.310;2023-06-26T13:53:02;26.60;99.90
41722;DHT22;27407;24.142;-110.310;2023-06-26T13:55:29;26.70;99.90
41722;DHT22;27407;24.142;-110.310;2023-06-26T13:57:56;26.80;99.90
41722;DHT22;27407;24.142;-110.310;2023-06-26T14:00:27;26.90;99.90
41722;DHT22;27407;24.142;-110.310;2023-06-26T14:02:54;27.00;99.90
41722;DHT22;27407;24.142;-110.310;2023-06-26T14:05:22;27.00;99.90
41722;DHT22;27407;24.142;-110.310;2023-06-26T14:07:49;27.20;99.90
41722;DHT22;27407;24.142;-110.310;2023-06-26T14:10:16;27.30;99.90
41722;DHT22;27407;24.142;-110.310;2023-06-26T14:12:43;27.30;99.90
41722;DHT22;27407;24.142;-110.310;2023-06-26T14:15:10;27.40;99.90
41722;DHT22;27407;24.142;-110.310;2023-06-26T14:17:37;27.50;99.90
41722;DHT22;27407;24.142;-110.310;2023-06-26T14:20:09;27.70;99.90
41722;DHT22;27407;24.142;-110.310;2023-06-26T14:22:42;27.80;99.90
41722;DHT22;27407;24.142;-110.310;2023-06-26T14:25:13;27.90;99.90
41722;DHT22;27407;24.142;-110.310;2023-06-26T14:27:40;28.10;99.90
41722;DHT22;27407;24.142;-110.310;2023-06-26T14:30:08;28.20;99.90
41722;DHT22;27407;24.142;-110.310;2023-06-26T14:32:35;28.30;99.90
41722;DHT22;27407;24.142;-110.310;2023-06-26T14:35:03;28.50;99.90
41722;DHT22;27407;24.142;-110.310;2023-06-26T14:37:30;28.70;99.90
41722;DHT22;27407;24.142;-110.310;2023-06-26T14:39:57;28.90;99.90
41722;DHT22;27407;24.142;-110.310;2023-06-26T14:46:04;29.30;99.90
41722;DHT22;27407;24.142;-110.310;2023-06-26T14:48:36;29.60;99.90
41722;DHT22;27407;24.142;-110.310;2023-06-26T14:51:03;29.70;99.90
41722;DHT22;27407;24.142;-110.310;2023-06-26T14:53:33;29.90;99.90
41722;DHT22;27407;24.142;-110.310;2023-06-26T14:56:19;30.00;99.90
41722;DHT22;27407;24.142;-110.310;2023-06-26T14:58:47;30.30;99.90
41722;DHT22;27407;24.142;-110.310;2023-06-26T15:01:14;30.50;99.90
41722;DHT22;27407;24.142;-110.310;2023-06-26T15:03:51;30.70;99.90
41722;DHT22;27407;24.142;-110.310;2023-06-26T15:06:20;30.80;99.90
41722;DHT22;27407;24.142;-110.310;2023-06-26T15:09:05;31.00;99.90
41722;DHT22;27407;24.142;-110.310;2023-06-26T15:11:32;31.10;99.90
41722;DHT22;27407;24.142;-110.310;2023-06-26T15:13:58;31.30;99.90
41722;DHT22;27407;24.142;-110.310;2023-06-26T15:16:35;31.40;99.90